createdAt,value
2023-05-19T00:01:19.321Z,7.00
2023-05-19T00:03:59.102Z,7.80
2023-05-19T00:06:31.964Z,7.90
2023-05-19T00:09:07.281Z,7.80
2023-05-19T00:11:37.207Z,7.00
2023-05-19T00:14:08.046Z,8.20
2023-05-19T00:16:40.859Z,6.60
2023-05-19T00:19:10.654Z,6.90
2023-05-19T00:21:39.162Z,7.70
2023-05-19T00:24:07.895Z,7.40
2023-05-19T00:26:36.154Z,7.00
2023-05-19T00:29:06.277Z,7.40
2023-05-19T00:31:34.572Z,7.70
2023-05-19T00:34:03.442Z,7.20
2023-05-19T00:36:31.633Z,7.10
2023-05-19T00:38:59.765Z,7.00
2023-05-19T00:41:27.875Z,7.10
2023-05-19T00:43:56.300Z,8.20
2023-05-19T00:46:25.170Z,6.70
2023-05-19T00:48:53.458Z,6.40
2023-05-19T00:51:23.002Z,5.90
2023-05-19T00:53:52.388Z,6.50
2023-05-19T00:56:21.913Z,6.40
2023-05-19T00:58:52.096Z,6.90
2023-05-19T01:01:22.022Z,7.00
2023-05-19T01:03:51.583Z,6.70
2023-05-19T01:06:21.200Z,6.60
2023-05-19T01:08:51.846Z,6.60
2023-05-19T01:11:19.967Z,6.80
2023-05-19T01:13:48.289Z,6.70
2023-05-19T01:17:15.312Z,6.80
2023-05-19T01:19:57.986Z,5.80
2023-05-19T01:22:44.525Z,6.30
2023-05-19T01:25:27.643Z,6.20
2023-05-19T01:28:24.771Z,6.00
2023-05-19T01:30:58.431Z,5.70
2023-05-19T01:33:30.041Z,6.20
2023-05-19T01:36:00.655Z,6.40
2023-05-19T01:38:30.514Z,6.80
2023-05-19T01:40:59.906Z,5.80
2023-05-19T01:43:29.544Z,5.90
2023-05-19T01:45:59.123Z,6.50
2023-05-19T01:48:28.996Z,6.10
2023-05-19T01:50:59.020Z,5.80
2023-05-19T01:53:27.448Z,6.40
2023-05-19T01:58:47.791Z,5.60
2023-05-19T02:01:15.968Z,6.20
2023-05-19T02:04:15.479Z,5.10
2023-05-19T02:07:05.816Z,6.10
2023-05-19T02:09:59.629Z,5.70
2023-05-19T02:12:34.488Z,5.40
2023-05-19T02:15:07.379Z,5.50
2023-05-19T02:17:41.708Z,6.30
2023-05-19T02:20:12.044Z,6.50
2023-05-19T02:22:40.593Z,5.80
2023-05-19T02:27:39.152Z,6.50
2023-05-19T02:30:09.465Z,5.10
2023-05-19T02:32:38.313Z,5.30
2023-05-19T02:35:06.914Z,5.50
2023-05-19T02:40:04.556Z,5.40
2023-05-19T02:42:32.789Z,5.90
2023-05-19T02:45:00.998Z,5.40
2023-05-19T02:47:29.264Z,5.50
2023-05-19T02:49:57.337Z,5.10
2023-05-19T02:52:25.460Z,5.10
2023-05-19T02:54:53.585Z,5.50
2023-05-19T02:57:22.103Z,5.60
2023-05-19T02:59:50.317Z,5.20
2023-05-19T03:02:18.640Z,5.20
2023-05-19T03:04:46.869Z,5.40
2023-05-19T03:07:15.782Z,6.10
2023-05-19T03:09:43.827Z,5.70
2023-05-19T03:12:11.922Z,5.40
2023-05-19T03:14:40.041Z,5.80
2023-05-19T03:17:08.590Z,5.50
2023-05-19T03:19:37.087Z,5.60
2023-05-19T03:22:05.617Z,5.60
2023-05-19T03:24:34.750Z,6.00
2023-05-19T03:27:06.000Z,6.70
2023-05-19T03:29:34.383Z,5.70
2023-05-19T03:32:02.571Z,6.10
2023-05-19T03:34:32.867Z,6.30
2023-05-19T03:37:01.459Z,7.10
2023-05-19T03:39:29.577Z,6.40
2023-05-19T03:41:57.709Z,6.40
2023-05-19T03:44:25.815Z,5.90
2023-05-19T03:46:54.034Z,6.40
2023-05-19T03:49:40.622Z,6.40
2023-05-19T03:52:38.854Z,6.70
2023-05-19T03:55:21.735Z,6.00
2023-05-19T03:57:49.945Z,6.30
2023-05-19T04:00:18.863Z,6.70
2023-05-19T04:02:47.113Z,6.20
2023-05-19T04:05:15.411Z,6.10
2023-05-19T04:07:43.635Z,7.00
2023-05-19T04:10:12.312Z,6.70
2023-05-19T04:12:40.461Z,6.40
2023-05-19T04:15:11.521Z,6.20
2023-05-19T04:17:40.166Z,6.50
2023-05-19T04:20:08.843Z,5.80
2023-05-19T04:22:36.958Z,6.60
2023-05-19T04:25:05.680Z,6.30
2023-05-19T04:27:36.824Z,6.30
2023-05-19T04:30:06.326Z,5.70
2023-05-19T04:32:37.800Z,5.70
2023-05-19T04:35:06.886Z,5.40
2023-05-19T04:40:11.211Z,6.10
2023-05-19T04:42:43.092Z,5.60
2023-05-19T04:45:14.292Z,6.00
2023-05-19T04:47:44.663Z,5.30
2023-05-19T04:50:13.272Z,5.50
2023-05-19T04:52:45.765Z,6.10
2023-05-19T04:55:14.361Z,6.30
2023-05-19T04:57:43.150Z,5.90
2023-05-19T05:00:15.540Z,6.00
2023-05-19T05:03:08.156Z,5.30
2023-05-19T05:05:36.620Z,6.60
2023-05-19T05:10:37.058Z,5.70
2023-05-19T05:13:05.505Z,6.00
2023-05-19T05:15:34.146Z,6.00
2023-05-19T05:18:03.327Z,6.70
2023-05-19T05:20:32.693Z,5.70
2023-05-19T05:23:02.279Z,5.60
2023-05-19T05:25:32.493Z,6.30
2023-05-19T05:28:05.342Z,6.80
2023-05-19T05:30:34.797Z,6.50
2023-05-19T05:33:03.535Z,6.20
2023-05-19T05:35:35.033Z,5.80
2023-05-19T05:38:03.639Z,6.90
2023-05-19T05:40:31.866Z,6.80
2023-05-19T05:42:59.982Z,6.40
2023-05-19T05:45:30.276Z,6.30
2023-05-19T05:47:59.377Z,6.70
2023-05-19T05:50:28.159Z,6.70
2023-05-19T05:53:00.171Z,6.20
2023-05-19T05:55:28.911Z,6.80
2023-05-19T05:57:58.867Z,6.90
2023-05-19T06:00:28.559Z,6.50
2023-05-19T06:02:57.455Z,6.70
2023-05-19T06:05:27.159Z,6.50
2023-05-19T06:07:55.440Z,5.90
2023-05-19T06:10:26.469Z,6.10
2023-05-19T06:12:55.082Z,5.70
2023-05-19T06:15:23.758Z,6.00
2023-05-19T06:18:02.689Z,6.30
2023-05-19T06:23:01.213Z,5.70
2023-05-19T06:25:30.635Z,6.00
2023-05-19T06:27:59.261Z,5.60
2023-05-19T06:30:27.580Z,5.40
2023-05-19T06:33:18.885Z,6.20
2023-05-19T06:38:15.854Z,6.60
2023-05-19T06:40:44.546Z,6.10
2023-05-19T06:48:26.771Z,8.50
2023-05-19T06:50:55.396Z,8.80
2023-05-19T06:53:23.816Z,8.80
2023-05-19T06:55:59.449Z,6.90
2023-05-19T06:58:31.821Z,7.50
2023-05-19T07:01:00.415Z,9.10
2023-05-19T07:03:31.888Z,5.50
2023-05-19T07:06:00.693Z,6.90
2023-05-19T07:08:29.597Z,5.60
2023-05-19T07:10:58.520Z,5.50
2023-05-19T07:15:56.497Z,5.90
2023-05-19T07:18:25.646Z,5.40
2023-05-19T07:20:54.222Z,5.20
2023-05-19T07:23:22.319Z,5.70
2023-05-19T07:28:18.966Z,5.50
2023-05-19T07:30:47.094Z,5.50
2023-05-19T07:35:44.733Z,5.00
2023-05-19T07:38:14.060Z,4.40
2023-05-19T07:40:42.192Z,5.70
2023-05-19T07:45:40.241Z,4.80
2023-05-19T07:48:08.598Z,4.70
2023-05-19T07:50:37.364Z,4.10
2023-05-19T07:53:05.581Z,5.00
2023-05-19T07:55:33.701Z,5.60
2023-05-19T08:00:29.938Z,5.90
2023-05-19T08:05:26.391Z,5.30
2023-05-19T08:10:22.734Z,5.20
2023-05-19T08:12:51.148Z,5.40
2023-05-19T08:15:19.778Z,4.70
2023-05-19T08:17:48.336Z,5.40
2023-05-19T08:20:16.509Z,5.20
2023-05-19T08:25:14.054Z,4.60
2023-05-19T08:27:42.273Z,5.70
2023-05-19T08:30:10.997Z,6.00
2023-05-19T08:32:39.265Z,11.50
2023-05-19T08:35:08.035Z,6.80
2023-05-19T08:37:38.152Z,7.90
2023-05-19T08:40:08.796Z,7.00
2023-05-19T08:42:37.033Z,7.00
2023-05-19T08:45:06.568Z,6.00
2023-05-19T08:47:35.228Z,6.50
2023-05-19T08:50:08.047Z,6.10
2023-05-19T08:52:38.923Z,5.70
2023-05-19T08:55:07.548Z,5.50
2023-05-19T08:57:37.787Z,4.60
2023-05-19T09:00:11.321Z,5.70
2023-05-19T09:02:50.409Z,4.70
2023-05-19T09:05:29.068Z,5.00
2023-05-19T09:07:57.454Z,5.00
2023-05-19T09:10:27.119Z,5.50
2023-05-19T09:12:56.303Z,5.00
2023-05-19T09:15:28.132Z,5.60
2023-05-19T09:18:14.154Z,5.00
2023-05-19T09:20:44.264Z,4.80
2023-05-19T09:23:17.758Z,4.90
2023-05-19T09:25:50.063Z,4.80
2023-05-19T09:28:25.720Z,4.40
2023-05-19T09:31:10.548Z,5.00
2023-05-19T09:33:45.609Z,4.80
2023-05-19T09:36:14.839Z,4.60
2023-05-19T09:38:43.034Z,4.80
2023-05-19T09:41:14.763Z,5.40
2023-05-19T09:43:43.039Z,4.50
2023-05-19T09:46:14.488Z,5.10
2023-05-19T09:48:44.063Z,5.00
2023-05-19T09:51:12.554Z,5.00
2023-05-19T09:53:40.775Z,5.60
2023-05-19T09:56:10.124Z,4.60
2023-05-19T09:58:42.445Z,5.10
2023-05-19T10:01:11.694Z,5.00
2023-05-19T10:03:40.795Z,5.60
2023-05-19T10:06:09.606Z,5.00
2023-05-19T10:08:39.819Z,5.50
2023-05-19T10:11:10.056Z,5.30
2023-05-19T10:13:39.319Z,5.30
2023-05-19T10:16:10.076Z,5.00
2023-05-19T10:18:39.976Z,5.10
2023-05-19T10:21:09.839Z,5.50
2023-05-19T10:23:38.489Z,5.40
2023-05-19T10:26:08.312Z,4.80
2023-05-19T10:28:39.778Z,4.80
2023-05-19T10:31:12.538Z,5.40
2023-05-19T10:34:25.455Z,4.90
2023-05-19T10:36:59.096Z,5.60
2023-05-19T10:39:38.050Z,5.30
2023-05-19T10:42:32.293Z,4.80
2023-05-19T10:45:15.939Z,4.90
2023-05-19T10:47:45.947Z,5.10
2023-05-19T10:50:14.648Z,5.30
2023-05-19T10:52:44.917Z,4.50
2023-05-19T10:55:17.848Z,4.80
2023-05-19T10:57:58.729Z,5.10
2023-05-19T11:00:29.202Z,5.00
2023-05-19T11:03:19.254Z,4.20
2023-05-19T11:05:50.505Z,4.10
2023-05-19T11:08:35.141Z,4.70
2023-05-19T11:11:51.756Z,4.50
2023-05-19T11:14:26.697Z,4.20
2023-05-19T11:16:59.724Z,4.00
2023-05-19T11:19:30.778Z,4.20
2023-05-19T11:22:27.035Z,4.10
2023-05-19T11:24:56.220Z,4.30
2023-05-19T11:27:31.978Z,4.60
2023-05-19T11:30:09.608Z,3.70
2023-05-19T11:32:39.517Z,3.40
2023-05-19T11:35:10.272Z,3.60
2023-05-19T11:37:40.598Z,3.70
2023-05-19T11:40:09.544Z,3.70
2023-05-19T11:42:37.922Z,3.50
2023-05-19T11:45:08.258Z,3.50
2023-05-19T11:47:51.685Z,4.30
2023-05-19T11:50:26.074Z,5.00
2023-05-19T11:52:55.426Z,3.90
2023-05-19T11:55:23.739Z,4.20
2023-05-19T11:58:05.496Z,4.40
2023-05-19T12:00:41.210Z,4.80
2023-05-19T12:03:10.271Z,3.90
2023-05-19T12:05:44.906Z,3.90
2023-05-19T12:08:13.615Z,4.60
2023-05-19T12:10:41.869Z,3.50
2023-05-19T12:13:10.461Z,4.70
2023-05-19T12:15:39.495Z,4.30
2023-05-19T12:18:08.167Z,3.70
2023-05-19T12:20:37.566Z,4.00
2023-05-19T12:23:07.828Z,3.70
2023-05-19T12:25:36.354Z,5.40
2023-05-19T12:28:05.229Z,4.60
2023-05-19T12:30:35.294Z,4.10
2023-05-19T12:33:04.109Z,5.00
2023-05-19T12:35:36.423Z,4.30
2023-05-19T12:38:07.902Z,3.90
2023-05-19T12:40:38.400Z,4.60
2023-05-19T12:43:07.057Z,3.60
2023-05-19T12:45:36.455Z,3.70
2023-05-19T12:48:06.743Z,3.90
2023-05-19T12:50:38.243Z,4.00
2023-05-19T12:53:09.378Z,3.90
2023-05-19T12:55:45.026Z,4.20
2023-05-19T12:58:13.861Z,4.30
2023-05-19T13:00:45.268Z,3.80
2023-05-19T13:03:21.000Z,4.30
2023-05-19T13:05:51.370Z,4.10
2023-05-19T13:08:22.032Z,4.20
2023-05-19T13:10:50.502Z,4.40
2023-05-19T13:13:18.825Z,4.10
2023-05-19T13:15:50.805Z,4.40
2023-05-19T13:18:19.393Z,4.80
2023-05-19T13:20:50.326Z,5.20
2023-05-19T13:23:18.842Z,3.70
2023-05-19T13:25:47.359Z,7.10
2023-05-19T13:28:15.584Z,6.70
2023-05-19T13:30:44.336Z,7.20
2023-05-19T13:33:12.866Z,6.10
2023-05-19T13:35:41.344Z,5.40
2023-05-19T13:38:10.589Z,3.80
2023-05-19T13:40:40.461Z,5.40
2023-05-19T13:43:09.909Z,6.90
2023-05-19T13:45:38.843Z,4.50
2023-05-19T13:48:07.830Z,3.90
2023-05-19T13:50:36.782Z,5.50
2023-05-19T13:53:05.008Z,4.20
2023-05-19T13:55:33.796Z,5.60
2023-05-19T13:58:02.048Z,7.10
2023-05-19T14:00:32.027Z,4.70
2023-05-19T14:03:00.628Z,4.10
2023-05-19T14:05:29.338Z,5.20
2023-05-19T14:07:58.264Z,4.40
2023-05-19T14:10:26.859Z,5.70
2023-05-19T14:13:25.784Z,5.30
2023-05-19T14:15:43.460Z,6.30
2023-05-19T14:18:11.603Z,6.60
2023-05-19T14:20:39.708Z,7.00
2023-05-19T14:25:36.047Z,4.60
2023-05-19T14:28:04.373Z,4.80
2023-05-19T14:30:33.053Z,5.50
2023-05-19T14:33:01.555Z,4.70
2023-05-19T14:35:29.738Z,4.50
2023-05-19T14:37:57.853Z,4.40
2023-05-19T14:40:25.982Z,4.30
2023-05-19T14:42:54.309Z,4.60
2023-05-19T14:45:22.521Z,4.30
2023-05-19T14:47:50.745Z,3.80
2023-05-19T14:50:19.257Z,3.80
2023-05-19T14:52:47.473Z,5.40
2023-05-19T14:55:15.700Z,4.80
2023-05-19T14:57:43.837Z,4.60
2023-05-19T15:00:12.945Z,5.00
2023-05-19T15:02:41.304Z,4.50
2023-05-19T15:05:09.789Z,4.90
2023-05-19T15:07:38.110Z,4.60
2023-05-19T15:10:06.683Z,4.10
2023-05-19T15:12:34.862Z,3.60
2023-05-19T15:15:04.119Z,4.50
2023-05-19T15:17:32.318Z,3.70
2023-05-19T15:20:00.938Z,3.20
2023-05-19T15:22:29.233Z,4.10
2023-05-19T15:24:57.453Z,3.80
2023-05-19T15:27:25.575Z,3.80
2023-05-19T15:32:21.713Z,3.50
2023-05-19T15:34:50.048Z,4.10
2023-05-19T15:37:18.354Z,4.30
2023-05-19T15:39:46.581Z,4.60
2023-05-19T15:42:14.722Z,6.10
2023-05-19T15:47:11.042Z,5.70
2023-05-19T15:49:39.156Z,4.80
2023-05-19T15:52:07.279Z,4.50
2023-05-19T15:57:03.527Z,4.10
2023-05-19T15:59:31.645Z,4.20
2023-05-19T16:04:27.976Z,3.70
2023-05-19T16:06:56.396Z,3.30
2023-05-19T16:09:24.720Z,4.20
2023-05-19T16:11:52.847Z,3.70
2023-05-19T16:16:49.088Z,3.70
2023-05-19T16:19:17.453Z,4.00
2023-05-19T16:21:45.721Z,4.20
2023-05-19T16:24:13.840Z,3.70
2023-05-19T16:29:10.084Z,4.00
2023-05-19T16:34:06.324Z,3.50
2023-05-19T16:39:02.560Z,4.20
2023-05-19T16:43:58.900Z,5.00
2023-05-19T16:46:29.100Z,5.80
2023-05-19T16:48:58.049Z,5.90
2023-05-19T16:53:54.190Z,4.50
2023-05-19T16:56:22.621Z,4.60
2023-05-19T16:58:51.134Z,4.00
2023-05-19T17:01:19.273Z,7.40
2023-05-19T17:06:15.487Z,6.60
2023-05-19T17:08:43.609Z,4.80
2023-05-19T17:11:13.632Z,5.40
2023-05-19T17:13:44.061Z,6.90
2023-05-19T17:16:12.186Z,11.90
2023-05-19T17:18:40.323Z,8.00
2023-05-19T17:23:36.442Z,17.40
2023-05-19T17:26:04.770Z,27.20
2023-05-19T17:28:32.878Z,8.70
2023-05-19T17:31:01.728Z,6.50
2023-05-19T17:33:30.506Z,6.40
2023-05-19T17:35:58.851Z,6.90
2023-05-19T17:40:59.016Z,18.20
2023-05-19T17:43:27.853Z,6.50
2023-05-19T17:45:56.822Z,6.20
2023-05-19T17:48:26.477Z,9.90
2023-05-19T17:50:54.894Z,7.20
2023-05-19T17:53:23.869Z,13.40
2023-05-19T17:56:03.176Z,9.80
2023-05-19T17:58:31.714Z,5.20
2023-05-19T18:01:00.140Z,9.90
2023-05-19T18:03:28.788Z,8.30
2023-05-19T18:05:57.749Z,5.30
2023-05-19T18:08:26.994Z,4.40
2023-05-19T18:10:56.914Z,4.70
2023-05-19T18:13:26.336Z,4.50
2023-05-19T18:15:54.695Z,4.20
2023-05-19T18:18:22.877Z,4.10
2023-05-19T18:20:51.093Z,3.50
2023-05-19T18:23:20.468Z,4.00
2023-05-19T18:25:50.550Z,4.50
2023-05-19T18:28:18.774Z,3.80
2023-05-19T18:33:14.909Z,4.60
2023-05-19T18:35:43.026Z,4.50
2023-05-19T18:38:11.148Z,4.60
2023-05-19T18:40:43.786Z,4.70
2023-05-19T18:43:11.908Z,4.40
2023-05-19T18:45:40.083Z,4.40
2023-05-19T18:50:36.673Z,4.80
2023-05-19T18:55:32.906Z,5.30
2023-05-19T18:58:01.525Z,4.70
2023-05-19T19:00:29.646Z,4.60
2023-05-19T19:02:57.821Z,4.30
2023-05-19T19:05:26.305Z,4.30
2023-05-19T19:10:22.539Z,4.10
2023-05-19T19:12:50.852Z,4.70
2023-05-19T19:15:19.028Z,5.00
2023-05-19T19:17:47.238Z,4.90
2023-05-19T19:20:15.616Z,4.50
2023-05-19T19:25:11.850Z,4.70
2023-05-19T19:27:39.970Z,4.60
2023-05-19T19:30:10.894Z,4.20
2023-05-19T19:32:39.038Z,4.70
2023-05-19T19:35:07.741Z,3.50
2023-05-19T19:37:35.963Z,3.60
2023-05-19T19:42:32.419Z,3.80
2023-05-19T19:47:28.793Z,3.90
2023-05-19T19:52:25.719Z,3.70
2023-05-19T19:54:53.903Z,3.80
2023-05-19T19:57:22.028Z,4.10
2023-05-19T19:59:56.767Z,4.20
2023-05-19T20:02:25.102Z,3.50
2023-05-19T20:04:53.609Z,4.80
2023-05-19T20:09:52.965Z,4.50
2023-05-19T20:12:22.386Z,4.70
2023-05-19T20:14:53.617Z,5.40
2023-05-19T20:17:21.736Z,5.00
2023-05-19T20:19:49.860Z,5.80
2023-05-19T20:22:17.979Z,5.00
2023-05-19T20:24:46.197Z,5.60
2023-05-19T20:27:14.325Z,5.60
2023-05-19T20:29:42.738Z,5.40
2023-05-19T20:32:11.471Z,5.60
2023-05-19T20:34:39.726Z,4.30
2023-05-19T20:39:36.024Z,5.00
2023-05-19T20:42:04.440Z,5.30
2023-05-19T20:47:00.578Z,4.90
2023-05-19T20:49:28.704Z,4.70
2023-05-19T20:51:57.328Z,4.90
2023-05-19T20:54:25.542Z,4.10
2023-05-19T20:56:53.669Z,5.20
2023-05-19T20:59:22.189Z,4.00
2023-05-19T21:01:50.419Z,4.70
2023-05-19T21:04:18.893Z,4.70
2023-05-19T21:06:47.026Z,4.70
2023-05-19T21:11:43.487Z,4.60
2023-05-19T21:14:11.606Z,4.40
2023-05-19T21:16:40.060Z,3.70
2023-05-19T21:19:08.280Z,4.40
2023-05-19T21:21:36.510Z,4.30
2023-05-19T21:24:04.895Z,4.90
2023-05-19T21:29:01.328Z,4.00
2023-05-19T21:31:29.476Z,4.10
2023-05-19T21:33:57.773Z,4.20
2023-05-19T21:36:25.894Z,4.10
2023-05-19T21:38:54.219Z,3.60
2023-05-19T21:43:51.052Z,3.70
2023-05-19T21:46:19.209Z,3.90
2023-05-19T21:48:47.498Z,4.10
2023-05-19T21:51:15.612Z,3.60
2023-05-19T21:53:43.733Z,4.40
2023-05-19T21:56:11.852Z,3.80
2023-05-19T21:58:40.476Z,4.20
2023-05-19T22:01:08.756Z,3.80
2023-05-19T22:06:08.567Z,4.30
2023-05-19T22:08:36.671Z,4.10
2023-05-19T22:13:34.115Z,3.50
2023-05-19T22:16:04.848Z,3.60
2023-05-19T22:18:33.163Z,3.20
2023-05-19T22:21:01.483Z,4.00
2023-05-19T22:25:57.624Z,4.30
2023-05-19T22:28:25.858Z,4.30
2023-05-19T22:30:54.058Z,4.10
2023-05-19T22:33:22.198Z,3.70
2023-05-19T22:38:19.125Z,3.70
2023-05-19T22:40:47.349Z,3.60
2023-05-19T22:43:15.461Z,4.00
2023-05-19T22:45:43.723Z,3.40
2023-05-19T22:50:40.131Z,3.80
2023-05-19T22:53:08.249Z,3.30
2023-05-19T22:55:36.560Z,4.30
2023-05-19T22:58:06.612Z,3.70
2023-05-19T23:00:34.713Z,4.40
2023-05-19T23:03:02.864Z,4.20
2023-05-19T23:05:31.072Z,4.50
2023-05-19T23:10:27.391Z,4.00
2023-05-19T23:12:55.505Z,4.10
2023-05-19T23:15:23.932Z,4.80
2023-05-19T23:17:52.086Z,3.90
2023-05-19T23:22:48.398Z,3.70
2023-05-19T23:25:16.817Z,3.90
2023-05-19T23:27:46.661Z,4.40
2023-05-19T23:30:14.761Z,4.20
2023-05-19T23:32:42.922Z,4.10
2023-05-19T23:35:16.561Z,4.90
2023-05-19T23:37:44.743Z,4.10
2023-05-19T23:40:13.066Z,4.80
2023-05-19T23:45:09.753Z,4.70
2023-05-19T23:47:38.310Z,4.70
2023-05-19T23:50:07.148Z,4.60
2023-05-19T23:52:35.474Z,4.60
2023-05-19T23:57:32.118Z,4.80
